sensor_id;sensor_type;location;lat;lon;timestamp;P1;durP1;ratioP1;P2;durP2;ratioP2
47539;SDS011;33280;52.152;21.052;2023-06-19T00:00:00;14.53;;;10.10;;
47539;SDS011;33280;52.152;21.052;2023-06-19T00:02:27;12.40;;;9.77;;
47539;SDS011;33280;52.152;21.052;2023-06-19T00:04:54;13.47;;;9.90;;
47539;SDS011;33280;52.152;21.052;2023-06-19T00:07:21;14.33;;;10.03;;
47539;SDS011;33280;52.152;21.052;2023-06-19T00:09:48;15.37;;;10.30;;
47539;SDS011;33280;52.152;21.052;2023-06-19T00:12:15;14.13;;;10.20;;
47539;SDS011;33280;52.152;21.052;2023-06-19T00:14:42;15.43;;;10.47;;
47539;SDS011;33280;52.152;21.052;2023-06-19T00:17:09;12.33;;;9.40;;
47539;SDS011;33280;52.152;21.052;2023-06-19T00:19:36;14.70;;;10.03;;
47539;SDS011;33280;52.152;21.052;2023-06-19T00:22:03;11.97;;;9.80;;
47539;SDS011;33280;52.152;21.052;2023-06-19T00:24:31;13.37;;;10.13;;
47539;SDS011;33280;52.152;21.052;2023-06-19T00:26:58;14.00;;;10.10;;
47539;SDS011;33280;52.152;21.052;2023-06-19T00:29:29;14.87;;;10.43;;
47539;SDS011;33280;52.152;21.052;2023-06-19T00:31:56;15.73;;;10.00;;
47539;SDS011;33280;52.152;21.052;2023-06-19T00:34:23;13.47;;;9.57;;
47539;SDS011;33280;52.152;21.052;2023-06-19T00:36:51;15.37;;;10.10;;
47539;SDS011;33280;52.152;21.052;2023-06-19T00:39:23;14.27;;;10.33;;
47539;SDS011;33280;52.152;21.052;2023-06-19T00:41:52;14.17;;;10.03;;
47539;SDS011;33280;52.152;21.052;2023-06-19T00:44:19;14.83;;;10.07;;
47539;SDS011;33280;52.152;21.052;2023-06-19T00:46:46;13.03;;;9.53;;
47539;SDS011;33280;52.152;21.052;2023-06-19T00:49:16;13.83;;;9.40;;
47539;SDS011;33280;52.152;21.052;2023-06-19T00:51:43;12.40;;;9.20;;
47539;SDS011;33280;52.152;21.052;2023-06-19T00:54:10;12.77;;;9.63;;
47539;SDS011;33280;52.152;21.052;2023-06-19T00:56:37;13.53;;;9.80;;
47539;SDS011;33280;52.152;21.052;2023-06-19T00:59:10;12.83;;;10.00;;
47539;SDS011;33280;52.152;21.052;2023-06-19T01:01:41;12.93;;;10.00;;
47539;SDS011;33280;52.152;21.052;2023-06-19T01:04:08;14.70;;;9.97;;
47539;SDS011;33280;52.152;21.052;2023-06-19T01:06:42;14.97;;;10.17;;
47539;SDS011;33280;52.152;21.052;2023-06-19T01:09:38;13.17;;;10.47;;
47539;SDS011;33280;52.152;21.052;2023-06-19T01:12:21;13.07;;;10.30;;
47539;SDS011;33280;52.152;21.052;2023-06-19T01:14:54;12.70;;;9.83;;
47539;SDS011;33280;52.152;21.052;2023-06-19T01:17:28;13.17;;;10.10;;
47539;SDS011;33280;52.152;21.052;2023-06-19T01:19:56;13.87;;;10.10;;
47539;SDS011;33280;52.152;21.052;2023-06-19T01:22:30;14.23;;;10.27;;
47539;SDS011;33280;52.152;21.052;2023-06-19T01:24:58;11.80;;;9.60;;
47539;SDS011;33280;52.152;21.052;2023-06-19T01:27:25;10.50;;;9.00;;
47539;SDS011;33280;52.152;21.052;2023-06-19T01:29:56;14.03;;;10.03;;
47539;SDS011;33280;52.152;21.052;2023-06-19T01:32:48;12.50;;;10.10;;
47539;SDS011;33280;52.152;21.052;2023-06-19T01:35:25;13.10;;;9.20;;
47539;SDS011;33280;52.152;21.052;2023-06-19T01:37:55;13.07;;;9.13;;
47539;SDS011;33280;52.152;21.052;2023-06-19T01:40:23;12.10;;;9.93;;
47539;SDS011;33280;52.152;21.052;2023-06-19T01:42:54;13.97;;;10.50;;
47539;SDS011;33280;52.152;21.052;2023-06-19T01:45:21;12.53;;;9.73;;
47539;SDS011;33280;52.152;21.052;2023-06-19T01:47:48;13.30;;;10.17;;
47539;SDS011;33280;52.152;21.052;2023-06-19T01:50:15;13.33;;;10.03;;
47539;SDS011;33280;52.152;21.052;2023-06-19T01:52:43;13.93;;;10.30;;
47539;SDS011;33280;52.152;21.052;2023-06-19T01:55:10;15.83;;;10.43;;
47539;SDS011;33280;52.152;21.052;2023-06-19T01:57:37;12.53;;;10.03;;
47539;SDS011;33280;52.152;21.052;2023-06-19T02:00:05;13.23;;;10.30;;
47539;SDS011;33280;52.152;21.052;2023-06-19T02:02:36;11.87;;;9.77;;
47539;SDS011;33280;52.152;21.052;2023-06-19T02:05:04;13.00;;;9.93;;
47539;SDS011;33280;52.152;21.052;2023-06-19T02:07:31;12.83;;;9.80;;
47539;SDS011;33280;52.152;21.052;2023-06-19T02:09:58;13.10;;;10.27;;
47539;SDS011;33280;52.152;21.052;2023-06-19T02:12:25;13.87;;;10.50;;
47539;SDS011;33280;52.152;21.052;2023-06-19T02:14:52;14.17;;;10.80;;
47539;SDS011;33280;52.152;21.052;2023-06-19T02:17:19;14.27;;;10.70;;
47539;SDS011;33280;52.152;21.052;2023-06-19T02:19:46;13.20;;;10.77;;
47539;SDS011;33280;52.152;21.052;2023-06-19T02:22:13;13.83;;;10.70;;
47539;SDS011;33280;52.152;21.052;2023-06-19T02:24:40;12.73;;;10.03;;
47539;SDS011;33280;52.152;21.052;2023-06-19T02:27:07;14.23;;;10.43;;
47539;SDS011;33280;52.152;21.052;2023-06-19T02:29:34;12.10;;;10.13;;
47539;SDS011;33280;52.152;21.052;2023-06-19T02:32:01;15.13;;;10.17;;
47539;SDS011;33280;52.152;21.052;2023-06-19T02:34:29;14.13;;;10.03;;
47539;SDS011;33280;52.152;21.052;2023-06-19T02:36:56;11.43;;;9.30;;
47539;SDS011;33280;52.152;21.052;2023-06-19T02:39:23;16.73;;;10.00;;
47539;SDS011;33280;52.152;21.052;2023-06-19T02:41:50;14.23;;;10.07;;
47539;SDS011;33280;52.152;21.052;2023-06-19T02:44:17;14.10;;;9.23;;
47539;SDS011;33280;52.152;21.052;2023-06-19T02:46:44;14.13;;;10.17;;
47539;SDS011;33280;52.152;21.052;2023-06-19T02:49:11;14.10;;;10.67;;
47539;SDS011;33280;52.152;21.052;2023-06-19T02:51:38;12.90;;;10.10;;
47539;SDS011;33280;52.152;21.052;2023-06-19T02:54:07;14.77;;;10.30;;
47539;SDS011;33280;52.152;21.052;2023-06-19T02:56:34;14.93;;;10.70;;
47539;SDS011;33280;52.152;21.052;2023-06-19T02:59:01;15.40;;;11.30;;
47539;SDS011;33280;52.152;21.052;2023-06-19T03:01:28;13.43;;;10.43;;
47539;SDS011;33280;52.152;21.052;2023-06-19T03:03:55;14.07;;;11.13;;
47539;SDS011;33280;52.152;21.052;2023-06-19T03:06:22;15.87;;;11.63;;
47539;SDS011;33280;52.152;21.052;2023-06-19T03:08:49;13.80;;;10.57;;
47539;SDS011;33280;52.152;21.052;2023-06-19T03:11:17;15.53;;;11.27;;
47539;SDS011;33280;52.152;21.052;2023-06-19T03:13:50;16.80;;;11.50;;
47539;SDS011;33280;52.152;21.052;2023-06-19T03:16:18;16.30;;;11.27;;
47539;SDS011;33280;52.152;21.052;2023-06-19T03:18:46;14.23;;;10.60;;
47539;SDS011;33280;52.152;21.052;2023-06-19T03:21:18;15.53;;;10.90;;
47539;SDS011;33280;52.152;21.052;2023-06-19T03:23:46;13.07;;;10.60;;
47539;SDS011;33280;52.152;21.052;2023-06-19T03:26:13;14.87;;;10.70;;
47539;SDS011;33280;52.152;21.052;2023-06-19T03:28:40;14.67;;;10.83;;
47539;SDS011;33280;52.152;21.052;2023-06-19T03:31:07;12.97;;;10.73;;
47539;SDS011;33280;52.152;21.052;2023-06-19T03:33:34;14.97;;;10.57;;
47539;SDS011;33280;52.152;21.052;2023-06-19T03:36:01;17.20;;;10.93;;
47539;SDS011;33280;52.152;21.052;2023-06-19T03:38:28;15.10;;;10.93;;
47539;SDS011;33280;52.152;21.052;2023-06-19T03:40:55;14.30;;;10.50;;
47539;SDS011;33280;52.152;21.052;2023-06-19T03:43:22;13.80;;;10.60;;
47539;SDS011;33280;52.152;21.052;2023-06-19T03:45:49;14.87;;;10.77;;
47539;SDS011;33280;52.152;21.052;2023-06-19T03:48:16;14.83;;;10.37;;
47539;SDS011;33280;52.152;21.052;2023-06-19T03:50:43;14.20;;;10.97;;
47539;SDS011;33280;52.152;21.052;2023-06-19T03:53:10;13.37;;;10.70;;
47539;SDS011;33280;52.152;21.052;2023-06-19T03:55:37;12.33;;;9.83;;
47539;SDS011;33280;52.152;21.052;2023-06-19T03:58:04;15.30;;;10.47;;
47539;SDS011;33280;52.152;21.052;2023-06-19T04:00:32;12.63;;;10.33;;
47539;SDS011;33280;52.152;21.052;2023-06-19T04:02:59;12.93;;;10.47;;
47539;SDS011;33280;52.152;21.052;2023-06-19T04:05:26;14.93;;;10.50;;
47539;SDS011;33280;52.152;21.052;2023-06-19T04:07:53;13.37;;;10.00;;
47539;SDS011;33280;52.152;21.052;2023-06-19T04:10:20;16.17;;;11.60;;
47539;SDS011;33280;52.152;21.052;2023-06-19T04:12:47;14.87;;;11.33;;
47539;SDS011;33280;52.152;21.052;2023-06-19T04:15:14;15.60;;;11.03;;
47539;SDS011;33280;52.152;21.052;2023-06-19T04:17:41;17.47;;;11.07;;
47539;SDS011;33280;52.152;21.052;2023-06-19T04:20:08;12.03;;;10.20;;
47539;SDS011;33280;52.152;21.052;2023-06-19T04:22:39;13.63;;;10.70;;
47539;SDS011;33280;52.152;21.052;2023-06-19T04:25:07;13.30;;;10.27;;
47539;SDS011;33280;52.152;21.052;2023-06-19T04:27:37;13.13;;;10.53;;
47539;SDS011;33280;52.152;21.052;2023-06-19T04:30:04;14.07;;;10.73;;
47539;SDS011;33280;52.152;21.052;2023-06-19T04:32:33;13.67;;;10.90;;
47539;SDS011;33280;52.152;21.052;2023-06-19T04:35:08;13.50;;;10.70;;
47539;SDS011;33280;52.152;21.052;2023-06-19T04:37:36;12.80;;;10.70;;
47539;SDS011;33280;52.152;21.052;2023-06-19T04:40:03;14.80;;;10.93;;
47539;SDS011;33280;52.152;21.052;2023-06-19T04:42:31;14.20;;;10.90;;
47539;SDS011;33280;52.152;21.052;2023-06-19T04:44:58;13.97;;;10.10;;
47539;SDS011;33280;52.152;21.052;2023-06-19T04:47:26;13.20;;;10.30;;
47539;SDS011;33280;52.152;21.052;2023-06-19T04:50:06;15.33;;;10.77;;
47539;SDS011;33280;52.152;21.052;2023-06-19T04:52:34;14.10;;;10.93;;
47539;SDS011;33280;52.152;21.052;2023-06-19T04:55:01;13.20;;;10.47;;
47539;SDS011;33280;52.152;21.052;2023-06-19T04:57:28;13.53;;;10.97;;
47539;SDS011;33280;52.152;21.052;2023-06-19T04:59:55;13.47;;;10.10;;
47539;SDS011;33280;52.152;21.052;2023-06-19T05:02:21;15.53;;;10.90;;
47539;SDS011;33280;52.152;21.052;2023-06-19T05:04:50;13.40;;;10.20;;
47539;SDS011;33280;52.152;21.052;2023-06-19T05:07:17;14.20;;;11.10;;
47539;SDS011;33280;52.152;21.052;2023-06-19T05:09:44;15.17;;;11.27;;
47539;SDS011;33280;52.152;21.052;2023-06-19T05:12:11;13.77;;;9.93;;
47539;SDS011;33280;52.152;21.052;2023-06-19T05:14:38;13.10;;;10.77;;
47539;SDS011;33280;52.152;21.052;2023-06-19T05:17:06;15.80;;;9.57;;
47539;SDS011;33280;52.152;21.052;2023-06-19T05:19:33;20.63;;;11.70;;
47539;SDS011;33280;52.152;21.052;2023-06-19T05:22:00;17.77;;;10.57;;
47539;SDS011;33280;52.152;21.052;2023-06-19T05:24:27;12.17;;;9.87;;
47539;SDS011;33280;52.152;21.052;2023-06-19T05:26:54;11.97;;;9.87;;
47539;SDS011;33280;52.152;21.052;2023-06-19T05:29:21;16.20;;;10.07;;
47539;SDS011;33280;52.152;21.052;2023-06-19T05:31:48;12.27;;;9.90;;
47539;SDS011;33280;52.152;21.052;2023-06-19T05:34:15;15.47;;;9.20;;
47539;SDS011;33280;52.152;21.052;2023-06-19T05:36:42;11.03;;;7.63;;
47539;SDS011;33280;52.152;21.052;2023-06-19T05:39:11;10.90;;;8.60;;
47539;SDS011;33280;52.152;21.052;2023-06-19T05:41:38;13.80;;;8.83;;
47539;SDS011;33280;52.152;21.052;2023-06-19T05:44:05;10.27;;;8.43;;
47539;SDS011;33280;52.152;21.052;2023-06-19T05:46:32;11.80;;;8.57;;
47539;SDS011;33280;52.152;21.052;2023-06-19T05:48:59;10.00;;;8.20;;
47539;SDS011;33280;52.152;21.052;2023-06-19T05:51:26;10.90;;;8.90;;
47539;SDS011;33280;52.152;21.052;2023-06-19T05:53:52;10.73;;;8.90;;
47539;SDS011;33280;52.152;21.052;2023-06-19T05:56:20;13.20;;;9.67;;
47539;SDS011;33280;52.152;21.052;2023-06-19T05:58:47;13.30;;;9.73;;
47539;SDS011;33280;52.152;21.052;2023-06-19T06:01:14;11.80;;;8.73;;
47539;SDS011;33280;52.152;21.052;2023-06-19T06:03:41;8.47;;;7.50;;
47539;SDS011;33280;52.152;21.052;2023-06-19T06:06:09;8.90;;;7.63;;
47539;SDS011;33280;52.152;21.052;2023-06-19T06:08:36;12.70;;;8.13;;
47539;SDS011;33280;52.152;21.052;2023-06-19T06:11:03;8.97;;;7.63;;
47539;SDS011;33280;52.152;21.052;2023-06-19T06:13:29;7.27;;;6.23;;
47539;SDS011;33280;52.152;21.052;2023-06-19T06:15:56;9.20;;;7.77;;
47539;SDS011;33280;52.152;21.052;2023-06-19T06:18:23;9.57;;;7.50;;
47539;SDS011;33280;52.152;21.052;2023-06-19T06:20:50;9.20;;;6.47;;
47539;SDS011;33280;52.152;21.052;2023-06-19T06:23:17;10.17;;;7.00;;
47539;SDS011;33280;52.152;21.052;2023-06-19T06:25:44;7.60;;;6.50;;
47539;SDS011;33280;52.152;21.052;2023-06-19T06:28:12;9.33;;;6.93;;
47539;SDS011;33280;52.152;21.052;2023-06-19T06:30:39;7.43;;;6.63;;
47539;SDS011;33280;52.152;21.052;2023-06-19T06:33:06;7.13;;;6.00;;
47539;SDS011;33280;52.152;21.052;2023-06-19T06:35:33;7.63;;;6.10;;
47539;SDS011;33280;52.152;21.052;2023-06-19T06:38:02;9.50;;;6.87;;
47539;SDS011;33280;52.152;21.052;2023-06-19T06:40:29;7.50;;;6.50;;
47539;SDS011;33280;52.152;21.052;2023-06-19T06:42:56;9.20;;;6.63;;
47539;SDS011;33280;52.152;21.052;2023-06-19T06:45:23;8.27;;;6.10;;
47539;SDS011;33280;52.152;21.052;2023-06-19T06:47:53;7.10;;;5.97;;
47539;SDS011;33280;52.152;21.052;2023-06-19T06:50:20;7.53;;;5.90;;
47539;SDS011;33280;52.152;21.052;2023-06-19T06:52:47;7.10;;;6.27;;
47539;SDS011;33280;52.152;21.052;2023-06-19T06:55:14;8.23;;;6.30;;
47539;SDS011;33280;52.152;21.052;2023-06-19T06:57:41;6.67;;;5.70;;
47539;SDS011;33280;52.152;21.052;2023-06-19T07:00:08;6.67;;;5.80;;
47539;SDS011;33280;52.152;21.052;2023-06-19T07:02:38;7.57;;;6.07;;
47539;SDS011;33280;52.152;21.052;2023-06-19T07:05:06;8.47;;;6.37;;
47539;SDS011;33280;52.152;21.052;2023-06-19T07:07:34;8.13;;;6.63;;
47539;SDS011;33280;52.152;21.052;2023-06-19T07:10:02;9.10;;;7.03;;
47539;SDS011;33280;52.152;21.052;2023-06-19T07:12:29;11.07;;;7.00;;
47539;SDS011;33280;52.152;21.052;2023-06-19T07:14:56;13.90;;;7.87;;
47539;SDS011;33280;52.152;21.052;2023-06-19T07:17:23;9.37;;;7.50;;
47539;SDS011;33280;52.152;21.052;2023-06-19T07:19:50;10.30;;;8.10;;
47539;SDS011;33280;52.152;21.052;2023-06-19T07:22:17;9.60;;;7.77;;
47539;SDS011;33280;52.152;21.052;2023-06-19T07:24:44;8.87;;;7.53;;
47539;SDS011;33280;52.152;21.052;2023-06-19T07:27:11;12.77;;;7.93;;
47539;SDS011;33280;52.152;21.052;2023-06-19T07:29:38;11.23;;;7.33;;
47539;SDS011;33280;52.152;21.052;2023-06-19T07:32:05;9.50;;;7.60;;
47539;SDS011;33280;52.152;21.052;2023-06-19T07:34:33;11.80;;;7.73;;
47539;SDS011;33280;52.152;21.052;2023-06-19T07:37:00;9.37;;;6.73;;
47539;SDS011;33280;52.152;21.052;2023-06-19T07:39:26;8.67;;;6.83;;
47539;SDS011;33280;52.152;21.052;2023-06-19T07:41:54;8.47;;;7.27;;
47539;SDS011;33280;52.152;21.052;2023-06-19T07:44:20;9.40;;;7.50;;
47539;SDS011;33280;52.152;21.052;2023-06-19T07:46:47;8.80;;;7.23;;
47539;SDS011;33280;52.152;21.052;2023-06-19T07:49:14;8.93;;;7.43;;
47539;SDS011;33280;52.152;21.052;2023-06-19T07:51:41;9.93;;;7.60;;
47539;SDS011;33280;52.152;21.052;2023-06-19T07:54:08;8.90;;;7.20;;
47539;SDS011;33280;52.152;21.052;2023-06-19T07:56:36;9.33;;;7.17;;
47539;SDS011;33280;52.152;21.052;2023-06-19T07:59:02;9.80;;;8.27;;
47539;SDS011;33280;52.152;21.052;2023-06-19T08:01:31;11.60;;;7.60;;
47539;SDS011;33280;52.152;21.052;2023-06-19T08:03:58;14.43;;;8.63;;
47539;SDS011;33280;52.152;21.052;2023-06-19T08:06:25;12.93;;;8.27;;
47539;SDS011;33280;52.152;21.052;2023-06-19T08:08:52;10.37;;;7.77;;
47539;SDS011;33280;52.152;21.052;2023-06-19T08:11:19;9.87;;;7.47;;
47539;SDS011;33280;52.152;21.052;2023-06-19T08:13:46;16.03;;;8.43;;
47539;SDS011;33280;52.152;21.052;2023-06-19T08:16:13;9.97;;;7.77;;
47539;SDS011;33280;52.152;21.052;2023-06-19T08:18:41;10.53;;;7.77;;
47539;SDS011;33280;52.152;21.052;2023-06-19T08:21:08;10.90;;;7.67;;
47539;SDS011;33280;52.152;21.052;2023-06-19T08:23:36;15.13;;;8.67;;
47539;SDS011;33280;52.152;21.052;2023-06-19T08:26:04;9.93;;;7.83;;
47539;SDS011;33280;52.152;21.052;2023-06-19T08:28:31;8.57;;;7.13;;
47539;SDS011;33280;52.152;21.052;2023-06-19T08:30:59;8.63;;;7.13;;
47539;SDS011;33280;52.152;21.052;2023-06-19T08:33:26;11.57;;;7.75;;
47539;SDS011;33280;52.152;21.052;2023-06-19T08:35:53;10.20;;;7.75;;
47539;SDS011;33280;52.152;21.052;2023-06-19T08:38:20;9.13;;;7.05;;
47539;SDS011;33280;52.152;21.052;2023-06-19T08:40:47;8.57;;;7.47;;
47539;SDS011;33280;52.152;21.052;2023-06-19T08:43:14;9.13;;;7.68;;
47539;SDS011;33280;52.152;21.052;2023-06-19T08:45:41;8.52;;;7.40;;
47539;SDS011;33280;52.152;21.052;2023-06-19T08:48:12;10.18;;;7.55;;
47539;SDS011;33280;52.152;21.052;2023-06-19T08:50:40;12.05;;;7.85;;
47539;SDS011;33280;52.152;21.052;2023-06-19T08:53:07;7.60;;;6.75;;
47539;SDS011;33280;52.152;21.052;2023-06-19T08:55:34;7.03;;;6.32;;
47539;SDS011;33280;52.152;21.052;2023-06-19T08:58:01;8.73;;;6.38;;
47539;SDS011;33280;52.152;21.052;2023-06-19T09:00:29;6.90;;;6.13;;
47539;SDS011;33280;52.152;21.052;2023-06-19T09:03:00;8.00;;;6.50;;
47539;SDS011;33280;52.152;21.052;2023-06-19T09:05:40;6.20;;;5.60;;
47539;SDS011;33280;52.152;21.052;2023-06-19T09:08:13;6.38;;;5.50;;
47539;SDS011;33280;52.152;21.052;2023-06-19T09:10:42;6.20;;;5.60;;
47539;SDS011;33280;52.152;21.052;2023-06-19T09:13:09;5.55;;;5.03;;
47539;SDS011;33280;52.152;21.052;2023-06-19T09:15:37;6.00;;;5.25;;
47539;SDS011;33280;52.152;21.052;2023-06-19T09:18:10;7.55;;;5.60;;
47539;SDS011;33280;52.152;21.052;2023-06-19T09:20:39;8.95;;;5.43;;
47539;SDS011;33280;52.152;21.052;2023-06-19T09:23:11;5.72;;;5.15;;
47539;SDS011;33280;52.152;21.052;2023-06-19T09:25:48;6.10;;;5.25;;
47539;SDS011;33280;52.152;21.052;2023-06-19T09:28:21;6.10;;;5.50;;
47539;SDS011;33280;52.152;21.052;2023-06-19T09:33:19;5.93;;;5.32;;
47539;SDS011;33280;52.152;21.052;2023-06-19T09:35:47;5.80;;;5.13;;
47539;SDS011;33280;52.152;21.052;2023-06-19T09:38:17;5.32;;;4.63;;
47539;SDS011;33280;52.152;21.052;2023-06-19T09:40:45;5.85;;;5.25;;
47539;SDS011;33280;52.152;21.052;2023-06-19T09:43:16;6.72;;;5.53;;
47539;SDS011;33280;52.152;21.052;2023-06-19T09:45:49;7.25;;;6.32;;
47539;SDS011;33280;52.152;21.052;2023-06-19T09:48:20;7.25;;;6.53;;
47539;SDS011;33280;52.152;21.052;2023-06-19T09:50:53;9.35;;;5.93;;
47539;SDS011;33280;52.152;21.052;2023-06-19T09:53:26;6.75;;;5.75;;
47539;SDS011;33280;52.152;21.052;2023-06-19T09:55:53;6.43;;;5.70;;
47539;SDS011;33280;52.152;21.052;2023-06-19T09:58:22;7.68;;;5.72;;
47539;SDS011;33280;52.152;21.052;2023-06-19T10:00:49;6.63;;;5.47;;
47539;SDS011;33280;52.152;21.052;2023-06-19T10:03:17;7.85;;;4.75;;
47539;SDS011;33280;52.152;21.052;2023-06-19T10:05:44;6.85;;;5.50;;
47539;SDS011;33280;52.152;21.052;2023-06-19T10:08:12;5.85;;;5.18;;
47539;SDS011;33280;52.152;21.052;2023-06-19T10:10:46;6.63;;;4.90;;
47539;SDS011;33280;52.152;21.052;2023-06-19T10:13:16;11.15;;;5.47;;
47539;SDS011;33280;52.152;21.052;2023-06-19T10:15:44;29.73;;;7.47;;
47539;SDS011;33280;52.152;21.052;2023-06-19T10:18:14;7.32;;;5.10;;
47539;SDS011;33280;52.152;21.052;2023-06-19T10:20:43;12.13;;;5.88;;
47539;SDS011;33280;52.152;21.052;2023-06-19T10:25:45;6.40;;;5.03;;
47539;SDS011;33280;52.152;21.052;2023-06-19T10:28:27;5.10;;;4.60;;
47539;SDS011;33280;52.152;21.052;2023-06-19T10:33:33;4.97;;;4.47;;
47539;SDS011;33280;52.152;21.052;2023-06-19T10:36:16;6.05;;;5.45;;
47539;SDS011;33280;52.152;21.052;2023-06-19T10:38:45;7.78;;;5.70;;
47539;SDS011;33280;52.152;21.052;2023-06-19T10:41:20;6.47;;;5.53;;
47539;SDS011;33280;52.152;21.052;2023-06-19T10:46:34;19.50;;;7.38;;
47539;SDS011;33280;52.152;21.052;2023-06-19T10:49:03;6.57;;;5.30;;
47539;SDS011;33280;52.152;21.052;2023-06-19T10:51:33;7.25;;;5.40;;
47539;SDS011;33280;52.152;21.052;2023-06-19T10:54:01;5.78;;;4.78;;
47539;SDS011;33280;52.152;21.052;2023-06-19T10:56:29;6.05;;;5.07;;
47539;SDS011;33280;52.152;21.052;2023-06-19T10:58:56;7.75;;;5.65;;
47539;SDS011;33280;52.152;21.052;2023-06-19T11:01:42;8.35;;;4.65;;
47539;SDS011;33280;52.152;21.052;2023-06-19T11:04:15;6.32;;;4.90;;
47539;SDS011;33280;52.152;21.052;2023-06-19T11:06:43;5.05;;;4.57;;
47539;SDS011;33280;52.152;21.052;2023-06-19T11:09:11;5.03;;;4.30;;
47539;SDS011;33280;52.152;21.052;2023-06-19T11:14:14;6.32;;;4.90;;
47539;SDS011;33280;52.152;21.052;2023-06-19T11:16:46;5.32;;;4.50;;
47539;SDS011;33280;52.152;21.052;2023-06-19T11:19:18;5.47;;;4.60;;
47539;SDS011;33280;52.152;21.052;2023-06-19T11:21:47;4.97;;;4.47;;
47539;SDS011;33280;52.152;21.052;2023-06-19T11:24:18;5.53;;;4.90;;
47539;SDS011;33280;52.152;21.052;2023-06-19T11:26:47;10.85;;;5.00;;
47539;SDS011;33280;52.152;21.052;2023-06-19T11:29:21;5.97;;;4.38;;
47539;SDS011;33280;52.152;21.052;2023-06-19T11:31:50;5.93;;;4.90;;
47539;SDS011;33280;52.152;21.052;2023-06-19T11:34:30;5.22;;;4.53;;
47539;SDS011;33280;52.152;21.052;2023-06-19T11:36:58;5.07;;;4.57;;
47539;SDS011;33280;52.152;21.052;2023-06-19T11:39:25;5.72;;;4.65;;
47539;SDS011;33280;52.152;21.052;2023-06-19T11:41:54;7.43;;;4.35;;
47539;SDS011;33280;52.152;21.052;2023-06-19T11:44:21;6.10;;;5.00;;
47539;SDS011;33280;52.152;21.052;2023-06-19T11:46:48;5.13;;;4.63;;
47539;SDS011;33280;52.152;21.052;2023-06-19T11:49:15;5.57;;;4.57;;
47539;SDS011;33280;52.152;21.052;2023-06-19T11:51:44;5.03;;;4.53;;
47539;SDS011;33280;52.152;21.052;2023-06-19T11:54:12;4.90;;;4.40;;
47539;SDS011;33280;52.152;21.052;2023-06-19T11:56:44;4.68;;;4.18;;
47539;SDS011;33280;52.152;21.052;2023-06-19T11:59:11;4.53;;;4.10;;
47539;SDS011;33280;52.152;21.052;2023-06-19T12:01:38;5.10;;;4.45;;
47539;SDS011;33280;52.152;21.052;2023-06-19T12:04:05;6.70;;;4.47;;
47539;SDS011;33280;52.152;21.052;2023-06-19T12:06:33;5.93;;;4.20;;
47539;SDS011;33280;52.152;21.052;2023-06-19T12:09:02;4.82;;;4.32;;
47539;SDS011;33280;52.152;21.052;2023-06-19T12:11:31;4.40;;;4.00;;
47539;SDS011;33280;52.152;21.052;2023-06-19T12:13:58;5.30;;;4.80;;
47539;SDS011;33280;52.152;21.052;2023-06-19T12:16:25;4.47;;;4.07;;
47539;SDS011;33280;52.152;21.052;2023-06-19T12:18:52;5.53;;;4.40;;
47539;SDS011;33280;52.152;21.052;2023-06-19T12:21:19;6.50;;;4.72;;
47539;SDS011;33280;52.152;21.052;2023-06-19T12:24:03;6.88;;;4.50;;
47539;SDS011;33280;52.152;21.052;2023-06-19T12:26:30;5.80;;;4.25;;
47539;SDS011;33280;52.152;21.052;2023-06-19T12:29:04;7.47;;;4.60;;
47539;SDS011;33280;52.152;21.052;2023-06-19T12:31:31;7.05;;;4.47;;
47539;SDS011;33280;52.152;21.052;2023-06-19T12:33:59;5.82;;;4.65;;
47539;SDS011;33280;52.152;21.052;2023-06-19T12:36:39;5.55;;;4.70;;
47539;SDS011;33280;52.152;21.052;2023-06-19T12:39:06;5.28;;;4.75;;
47539;SDS011;33280;52.152;21.052;2023-06-19T12:41:41;7.22;;;4.25;;
47539;SDS011;33280;52.152;21.052;2023-06-19T12:44:07;6.47;;;4.15;;
47539;SDS011;33280;52.152;21.052;2023-06-19T12:46:34;5.95;;;4.03;;
47539;SDS011;33280;52.152;21.052;2023-06-19T12:49:02;6.78;;;4.10;;
47539;SDS011;33280;52.152;21.052;2023-06-19T12:51:29;5.50;;;4.07;;
47539;SDS011;33280;52.152;21.052;2023-06-19T12:53:56;3.95;;;3.55;;
47539;SDS011;33280;52.152;21.052;2023-06-19T12:56:23;4.80;;;4.30;;
47539;SDS011;33280;52.152;21.052;2023-06-19T12:58:50;8.13;;;4.32;;
47539;SDS011;33280;52.152;21.052;2023-06-19T13:01:17;5.10;;;4.60;;
47539;SDS011;33280;52.152;21.052;2023-06-19T13:03:44;5.13;;;4.20;;
47539;SDS011;33280;52.152;21.052;2023-06-19T13:06:11;4.40;;;4.00;;
47539;SDS011;33280;52.152;21.052;2023-06-19T13:08:38;4.82;;;4.35;;
47539;SDS011;33280;52.152;21.052;2023-06-19T13:11:05;5.07;;;4.57;;
47539;SDS011;33280;52.152;21.052;2023-06-19T13:13:32;6.60;;;4.60;;
47539;SDS011;33280;52.152;21.052;2023-06-19T13:15:59;6.05;;;4.47;;
47539;SDS011;33280;52.152;21.052;2023-06-19T13:18:26;5.30;;;4.65;;
47539;SDS011;33280;52.152;21.052;2023-06-19T13:20:53;4.90;;;4.50;;
47539;SDS011;33280;52.152;21.052;2023-06-19T13:23:20;4.40;;;4.00;;
47539;SDS011;33280;52.152;21.052;2023-06-19T13:25:47;4.88;;;4.47;;
47539;SDS011;33280;52.152;21.052;2023-06-19T13:28:14;4.88;;;4.38;;
47539;SDS011;33280;52.152;21.052;2023-06-19T13:30:41;5.90;;;4.30;;
47539;SDS011;33280;52.152;21.052;2023-06-19T13:33:08;5.25;;;4.03;;
47539;SDS011;33280;52.152;21.052;2023-06-19T13:35:35;4.97;;;4.43;;
47539;SDS011;33280;52.152;21.052;2023-06-19T13:38:02;5.85;;;4.40;;
47539;SDS011;33280;52.152;21.052;2023-06-19T13:40:29;5.38;;;4.85;;
47539;SDS011;33280;52.152;21.052;2023-06-19T13:42:56;6.45;;;4.55;;
47539;SDS011;33280;52.152;21.052;2023-06-19T13:45:25;5.70;;;4.68;;
47539;SDS011;33280;52.152;21.052;2023-06-19T13:47:52;6.60;;;5.15;;
47539;SDS011;33280;52.152;21.052;2023-06-19T13:50:19;5.10;;;4.60;;
47539;SDS011;33280;52.152;21.052;2023-06-19T13:52:47;5.47;;;4.97;;
47539;SDS011;33280;52.152;21.052;2023-06-19T13:55:14;5.10;;;4.60;;
47539;SDS011;33280;52.152;21.052;2023-06-19T13:57:42;5.40;;;4.90;;
47539;SDS011;33280;52.152;21.052;2023-06-19T14:00:09;6.05;;;5.15;;
47539;SDS011;33280;52.152;21.052;2023-06-19T14:02:37;7.70;;;5.22;;
47539;SDS011;33280;52.152;21.052;2023-06-19T14:05:05;5.20;;;4.57;;
47539;SDS011;33280;52.152;21.052;2023-06-19T14:07:33;5.82;;;5.20;;
47539;SDS011;33280;52.152;21.052;2023-06-19T14:10:02;5.47;;;4.97;;
47539;SDS011;33280;52.152;21.052;2023-06-19T14:12:30;5.50;;;4.93;;
47539;SDS011;33280;52.152;21.052;2023-06-19T14:14:57;7.07;;;4.70;;
47539;SDS011;33280;52.152;21.052;2023-06-19T14:17:24;5.35;;;4.85;;
47539;SDS011;33280;52.152;21.052;2023-06-19T14:19:52;6.35;;;4.80;;
47539;SDS011;33280;52.152;21.052;2023-06-19T14:22:19;5.57;;;4.53;;
47539;SDS011;33280;52.152;21.052;2023-06-19T14:24:46;5.38;;;4.88;;
47539;SDS011;33280;52.152;21.052;2023-06-19T14:27:13;4.70;;;4.25;;
47539;SDS011;33280;52.152;21.052;2023-06-19T14:29:41;4.78;;;4.35;;
47539;SDS011;33280;52.152;21.052;2023-06-19T14:32:08;5.40;;;4.53;;
47539;SDS011;33280;52.152;21.052;2023-06-19T14:34:35;5.05;;;4.45;;
47539;SDS011;33280;52.152;21.052;2023-06-19T14:37:02;5.70;;;4.70;;
47539;SDS011;33280;52.152;21.052;2023-06-19T14:39:29;4.90;;;4.40;;
47539;SDS011;33280;52.152;21.052;2023-06-19T14:41:56;5.85;;;4.40;;